sensor_id;sensor_type;location;lat;lon;timestamp;temperature;humidity
16732;DHT22;8484;50.904;9.192;2023-01-04T00:01:57;5.70;99.90
16732;DHT22;8484;50.904;9.192;2023-01-04T00:04:26;5.70;99.90
16732;DHT22;8484;50.904;9.192;2023-01-04T00:06:52;5.70;99.90
16732;DHT22;8484;50.904;9.192;2023-01-04T00:09:19;5.70;99.90
16732;DHT22;8484;50.904;9.192;2023-01-04T00:11:46;5.80;99.90
16732;DHT22;8484;50.904;9.192;2023-01-04T00:14:13;5.80;99.90
16732;DHT22;8484;50.904;9.192;2023-01-04T00:16:41;5.70;99.90
16732;DHT22;8484;50.904;9.192;2023-01-04T00:19:10;5.60;99.90
16732;DHT22;8484;50.904;9.192;2023-01-04T00:21:38;5.50;99.90
16732;DHT22;8484;50.904;9.192;2023-01-04T00:24:06;5.60;99.90
16732;DHT22;8484;50.904;9.192;2023-01-04T00:26:33;5.60;99.90
16732;DHT22;8484;50.904;9.192;2023-01-04T00:29:03;5.50;99.90
16732;DHT22;8484;50.904;9.192;2023-01-04T00:31:31;5.50;99.90
16732;DHT22;8484;50.904;9.192;2023-01-04T00:33:59;5.50;99.90
16732;DHT22;8484;50.904;9.192;2023-01-04T00:36:26;5.50;99.90
16732;DHT22;8484;50.904;9.192;2023-01-04T00:38:56;5.50;99.90
16732;DHT22;8484;50.904;9.192;2023-01-04T00:41:34;5.40;99.90
16732;DHT22;8484;50.904;9.192;2023-01-04T00:44:01;5.40;99.90
16732;DHT22;8484;50.904;9.192;2023-01-04T00:46:29;5.50;99.90
16732;DHT22;8484;50.904;9.192;2023-01-04T00:48:56;5.60;99.90
16732;DHT22;8484;50.904;9.192;2023-01-04T00:51:23;5.60;99.90
16732;DHT22;8484;50.904;9.192;2023-01-04T00:53:50;5.60;99.90
16732;DHT22;8484;50.904;9.192;2023-01-04T00:56:18;5.60;99.90
16732;DHT22;8484;50.904;9.192;2023-01-04T00:58:45;5.60;99.90
16732;DHT22;8484;50.904;9.192;2023-01-04T01:01:12;5.60;99.90
16732;DHT22;8484;50.904;9.192;2023-01-04T01:03:39;5.60;99.90
16732;DHT22;8484;50.904;9.192;2023-01-04T01:06:08;5.60;99.90
16732;DHT22;8484;50.904;9.192;2023-01-04T01:08:35;5.60;99.90
16732;DHT22;8484;50.904;9.192;2023-01-04T01:11:03;5.60;99.90
16732;DHT22;8484;50.904;9.192;2023-01-04T01:13:31;5.60;99.90
16732;DHT22;8484;50.904;9.192;2023-01-04T01:16:02;5.60;99.90
16732;DHT22;8484;50.904;9.192;2023-01-04T01:18:29;5.70;99.90
16732;DHT22;8484;50.904;9.192;2023-01-04T01:20:56;5.70;99.90
16732;DHT22;8484;50.904;9.192;2023-01-04T01:23:22;5.60;99.90
16732;DHT22;8484;50.904;9.192;2023-01-04T01:25:49;5.60;99.90
16732;DHT22;8484;50.904;9.192;2023-01-04T01:28:16;5.50;99.90
16732;DHT22;8484;50.904;9.192;2023-01-04T01:30:44;5.60;99.90
16732;DHT22;8484;50.904;9.192;2023-01-04T01:33:11;5.50;99.90
16732;DHT22;8484;50.904;9.192;2023-01-04T01:35:38;5.60;99.90
16732;DHT22;8484;50.904;9.192;2023-01-04T01:38:05;5.60;99.90
16732;DHT22;8484;50.904;9.192;2023-01-04T01:40:32;5.50;99.90
16732;DHT22;8484;50.904;9.192;2023-01-04T01:42:59;5.60;99.90
16732;DHT22;8484;50.904;9.192;2023-01-04T01:45:29;5.50;99.90
16732;DHT22;8484;50.904;9.192;2023-01-04T01:48:02;5.40;99.90
16732;DHT22;8484;50.904;9.192;2023-01-04T01:50:33;5.40;99.90
16732;DHT22;8484;50.904;9.192;2023-01-04T01:53:02;5.40;99.90
16732;DHT22;8484;50.904;9.192;2023-01-04T01:55:31;5.40;99.90
16732;DHT22;8484;50.904;9.192;2023-01-04T01:57:59;5.40;99.90
16732;DHT22;8484;50.904;9.192;2023-01-04T02:00:28;5.50;99.90
16732;DHT22;8484;50.904;9.192;2023-01-04T02:03:12;5.50;99.90
16732;DHT22;8484;50.904;9.192;2023-01-04T02:05:42;5.50;99.90
16732;DHT22;8484;50.904;9.192;2023-01-04T02:08:10;5.50;99.90
16732;DHT22;8484;50.904;9.192;2023-01-04T02:10:38;5.50;99.90
16732;DHT22;8484;50.904;9.192;2023-01-04T02:13:08;5.50;99.90
16732;DHT22;8484;50.904;9.192;2023-01-04T02:15:47;5.40;99.90
16732;DHT22;8484;50.904;9.192;2023-01-04T02:18:24;5.40;99.90
16732;DHT22;8484;50.904;9.192;2023-01-04T02:20:54;5.40;99.90
16732;DHT22;8484;50.904;9.192;2023-01-04T02:27:06;5.60;99.90
16732;DHT22;8484;50.904;9.192;2023-01-04T02:30:03;5.60;99.90
16732;DHT22;8484;50.904;9.192;2023-01-04T02:32:45;5.60;99.90
16732;DHT22;8484;50.904;9.192;2023-01-04T02:35:19;5.80;99.90
16732;DHT22;8484;50.904;9.192;2023-01-04T02:37:50;5.80;99.90
16732;DHT22;8484;50.904;9.192;2023-01-04T02:40:23;5.80;99.90
16732;DHT22;8484;50.904;9.192;2023-01-04T02:42:56;5.80;99.90
16732;DHT22;8484;50.904;9.192;2023-01-04T02:45:45;5.90;99.90
16732;DHT22;8484;50.904;9.192;2023-01-04T02:48:14;5.90;99.90
16732;DHT22;8484;50.904;9.192;2023-01-04T02:50:59;5.90;99.90
16732;DHT22;8484;50.904;9.192;2023-01-04T02:53:28;6.00;99.90
16732;DHT22;8484;50.904;9.192;2023-01-04T02:56:07;6.00;99.90
16732;DHT22;8484;50.904;9.192;2023-01-04T02:59:01;6.10;99.90
16732;DHT22;8484;50.904;9.192;2023-01-04T03:01:37;6.00;99.90
16732;DHT22;8484;50.904;9.192;2023-01-04T03:04:45;6.00;99.90
16732;DHT22;8484;50.904;9.192;2023-01-04T03:07:36;6.10;99.90
16732;DHT22;8484;50.904;9.192;2023-01-04T03:10:09;6.10;99.90
16732;DHT22;8484;50.904;9.192;2023-01-04T03:12:43;6.10;99.90
16732;DHT22;8484;50.904;9.192;2023-01-04T03:15:14;6.10;99.90
16732;DHT22;8484;50.904;9.192;2023-01-04T03:17:45;6.10;99.90
16732;DHT22;8484;50.904;9.192;2023-01-04T03:20:15;6.00;99.90
16732;DHT22;8484;50.904;9.192;2023-01-04T03:22:47;6.10;99.90
16732;DHT22;8484;50.904;9.192;2023-01-04T03:25:36;6.10;99.90
16732;DHT22;8484;50.904;9.192;2023-01-04T03:28:25;6.10;99.90
16732;DHT22;8484;50.904;9.192;2023-01-04T03:31:13;6.10;99.90
16732;DHT22;8484;50.904;9.192;2023-01-04T03:33:59;6.10;99.90
16732;DHT22;8484;50.904;9.192;2023-01-04T03:36:58;6.10;99.90
16732;DHT22;8484;50.904;9.192;2023-01-04T03:39:34;6.10;99.90
16732;DHT22;8484;50.904;9.192;2023-01-04T03:42:28;6.20;99.90
16732;DHT22;8484;50.904;9.192;2023-01-04T03:45:17;6.10;99.90
16732;DHT22;8484;50.904;9.192;2023-01-04T03:48:09;6.20;99.90
16732;DHT22;8484;50.904;9.192;2023-01-04T03:51:03;6.10;99.90
16732;DHT22;8484;50.904;9.192;2023-01-04T03:53:36;6.10;99.90
16732;DHT22;8484;50.904;9.192;2023-01-04T03:56:07;6.00;99.90
16732;DHT22;8484;50.904;9.192;2023-01-04T03:58:35;6.00;99.90
16732;DHT22;8484;50.904;9.192;2023-01-04T04:01:03;6.00;99.90
16732;DHT22;8484;50.904;9.192;2023-01-04T04:03:30;6.00;99.90
16732;DHT22;8484;50.904;9.192;2023-01-04T04:06:15;5.90;99.90
16732;DHT22;8484;50.904;9.192;2023-01-04T04:09:01;5.80;99.90
16732;DHT22;8484;50.904;9.192;2023-01-04T04:11:28;5.80;99.90
16732;DHT22;8484;50.904;9.192;2023-01-04T04:13:58;5.80;99.90
16732;DHT22;8484;50.904;9.192;2023-01-04T04:16:25;5.80;99.90
16732;DHT22;8484;50.904;9.192;2023-01-04T04:18:52;5.70;99.90
16732;DHT22;8484;50.904;9.192;2023-01-04T04:21:19;5.60;99.90
16732;DHT22;8484;50.904;9.192;2023-01-04T04:23:46;5.70;99.90
16732;DHT22;8484;50.904;9.192;2023-01-04T04:26:15;5.70;99.90
16732;DHT22;8484;50.904;9.192;2023-01-04T04:28:42;5.70;99.90
16732;DHT22;8484;50.904;9.192;2023-01-04T04:31:09;5.60;99.90
16732;DHT22;8484;50.904;9.192;2023-01-04T04:33:36;5.60;99.90
16732;DHT22;8484;50.904;9.192;2023-01-04T04:36:04;5.60;99.90
16732;DHT22;8484;50.904;9.192;2023-01-04T04:38:31;5.60;99.90
16732;DHT22;8484;50.904;9.192;2023-01-04T04:40:58;5.60;99.90
16732;DHT22;8484;50.904;9.192;2023-01-04T04:43:43;5.60;99.90
16732;DHT22;8484;50.904;9.192;2023-01-04T04:46:10;5.50;99.90
16732;DHT22;8484;50.904;9.192;2023-01-04T04:48:37;5.60;99.90
16732;DHT22;8484;50.904;9.192;2023-01-04T04:51:04;5.60;99.90
16732;DHT22;8484;50.904;9.192;2023-01-04T04:53:31;5.50;99.90
16732;DHT22;8484;50.904;9.192;2023-01-04T04:55:58;5.60;99.90
16732;DHT22;8484;50.904;9.192;2023-01-04T04:58:25;5.60;99.90
16732;DHT22;8484;50.904;9.192;2023-01-04T05:00:53;5.60;99.90
16732;DHT22;8484;50.904;9.192;2023-01-04T05:03:20;5.50;99.90
16732;DHT22;8484;50.904;9.192;2023-01-04T05:05:47;5.50;99.90
16732;DHT22;8484;50.904;9.192;2023-01-04T05:08:14;5.50;99.90
16732;DHT22;8484;50.904;9.192;2023-01-04T05:10:41;5.40;99.90
16732;DHT22;8484;50.904;9.192;2023-01-04T05:13:09;5.40;99.90
16732;DHT22;8484;50.904;9.192;2023-01-04T05:15:39;5.40;99.90
16732;DHT22;8484;50.904;9.192;2023-01-04T05:18:09;5.30;99.90
16732;DHT22;8484;50.904;9.192;2023-01-04T05:20:36;5.30;99.90
16732;DHT22;8484;50.904;9.192;2023-01-04T05:23:03;5.30;99.90
16732;DHT22;8484;50.904;9.192;2023-01-04T05:25:30;5.30;99.90
16732;DHT22;8484;50.904;9.192;2023-01-04T05:27:57;5.40;99.90
16732;DHT22;8484;50.904;9.192;2023-01-04T05:30:24;5.40;99.90
16732;DHT22;8484;50.904;9.192;2023-01-04T05:33:10;5.40;99.90
16732;DHT22;8484;50.904;9.192;2023-01-04T05:35:37;5.40;99.90
16732;DHT22;8484;50.904;9.192;2023-01-04T05:38:04;5.40;99.90
16732;DHT22;8484;50.904;9.192;2023-01-04T05:40:31;5.40;99.90
16732;DHT22;8484;50.904;9.192;2023-01-04T05:42:58;5.40;99.90
16732;DHT22;8484;50.904;9.192;2023-01-04T05:45:25;5.40;99.90
16732;DHT22;8484;50.904;9.192;2023-01-04T05:47:52;5.40;99.90
16732;DHT22;8484;50.904;9.192;2023-01-04T05:50:21;5.40;99.90
16732;DHT22;8484;50.904;9.192;2023-01-04T05:52:50;5.50;99.90
16732;DHT22;8484;50.904;9.192;2023-01-04T05:55:18;5.50;99.90
16732;DHT22;8484;50.904;9.192;2023-01-04T05:57:45;5.50;99.90
16732;DHT22;8484;50.904;9.192;2023-01-04T06:00:12;5.40;99.90
16732;DHT22;8484;50.904;9.192;2023-01-04T06:02:40;5.50;99.90
16732;DHT22;8484;50.904;9.192;2023-01-04T06:05:09;5.60;99.90
16732;DHT22;8484;50.904;9.192;2023-01-04T06:07:37;5.60;99.90
16732;DHT22;8484;50.904;9.192;2023-01-04T06:10:06;5.70;99.90
16732;DHT22;8484;50.904;9.192;2023-01-04T06:12:32;5.70;99.90
16732;DHT22;8484;50.904;9.192;2023-01-04T06:14:59;5.70;99.90
16732;DHT22;8484;50.904;9.192;2023-01-04T06:17:26;5.80;99.90
16732;DHT22;8484;50.904;9.192;2023-01-04T06:19:53;5.80;99.90
16732;DHT22;8484;50.904;9.192;2023-01-04T06:22:20;5.70;99.90
16732;DHT22;8484;50.904;9.192;2023-01-04T06:24:48;5.80;99.90
16732;DHT22;8484;50.904;9.192;2023-01-04T06:27:15;5.80;99.90
16732;DHT22;8484;50.904;9.192;2023-01-04T06:29:42;5.80;99.90
16732;DHT22;8484;50.904;9.192;2023-01-04T06:32:09;5.80;99.90
16732;DHT22;8484;50.904;9.192;2023-01-04T06:34:36;5.80;99.90
16732;DHT22;8484;50.904;9.192;2023-01-04T06:37:03;5.80;99.90
16732;DHT22;8484;50.904;9.192;2023-01-04T06:39:30;5.80;99.90
16732;DHT22;8484;50.904;9.192;2023-01-04T06:42:04;5.90;99.90
16732;DHT22;8484;50.904;9.192;2023-01-04T06:44:51;5.80;99.90
16732;DHT22;8484;50.904;9.192;2023-01-04T06:47:18;5.90;99.90
16732;DHT22;8484;50.904;9.192;2023-01-04T06:49:44;5.90;99.90
16732;DHT22;8484;50.904;9.192;2023-01-04T06:52:11;5.90;99.90
16732;DHT22;8484;50.904;9.192;2023-01-04T06:54:38;5.80;99.90
16732;DHT22;8484;50.904;9.192;2023-01-04T06:57:06;5.70;99.90
16732;DHT22;8484;50.904;9.192;2023-01-04T06:59:33;5.70;99.90
16732;DHT22;8484;50.904;9.192;2023-01-04T07:02:00;5.70;99.90
16732;DHT22;8484;50.904;9.192;2023-01-04T07:04:27;5.70;99.90
16732;DHT22;8484;50.904;9.192;2023-01-04T07:06:54;5.70;99.90
16732;DHT22;8484;50.904;9.192;2023-01-04T07:09:22;5.80;99.90
16732;DHT22;8484;50.904;9.192;2023-01-04T07:11:49;5.80;99.90
16732;DHT22;8484;50.904;9.192;2023-01-04T07:14:17;5.90;99.90
16732;DHT22;8484;50.904;9.192;2023-01-04T07:16:44;5.90;99.90
16732;DHT22;8484;50.904;9.192;2023-01-04T07:19:11;5.90;99.90
16732;DHT22;8484;50.904;9.192;2023-01-04T07:21:37;5.90;99.90
16732;DHT22;8484;50.904;9.192;2023-01-04T07:24:04;6.00;99.90
16732;DHT22;8484;50.904;9.192;2023-01-04T07:26:32;6.00;99.90
16732;DHT22;8484;50.904;9.192;2023-01-04T07:28:59;6.00;99.90
16732;DHT22;8484;50.904;9.192;2023-01-04T07:31:44;6.00;99.90
16732;DHT22;8484;50.904;9.192;2023-01-04T07:34:12;6.00;99.90
16732;DHT22;8484;50.904;9.192;2023-01-04T07:36:39;6.00;99.90
16732;DHT22;8484;50.904;9.192;2023-01-04T07:39:07;6.00;99.90
16732;DHT22;8484;50.904;9.192;2023-01-04T07:41:35;6.10;99.90
16732;DHT22;8484;50.904;9.192;2023-01-04T07:44:03;6.00;99.90
16732;DHT22;8484;50.904;9.192;2023-01-04T07:46:31;6.00;99.90
16732;DHT22;8484;50.904;9.192;2023-01-04T07:48:59;6.00;99.90
16732;DHT22;8484;50.904;9.192;2023-01-04T07:51:26;6.10;99.90
16732;DHT22;8484;50.904;9.192;2023-01-04T07:53:53;6.10;99.90
16732;DHT22;8484;50.904;9.192;2023-01-04T07:56:20;6.10;99.90
16732;DHT22;8484;50.904;9.192;2023-01-04T07:58:47;6.10;99.90
16732;DHT22;8484;50.904;9.192;2023-01-04T08:01:15;6.10;99.90
16732;DHT22;8484;50.904;9.192;2023-01-04T08:03:44;6.10;99.90
16732;DHT22;8484;50.904;9.192;2023-01-04T08:06:14;6.10;99.90
16732;DHT22;8484;50.904;9.192;2023-01-04T08:08:41;6.10;99.90
16732;DHT22;8484;50.904;9.192;2023-01-04T08:11:11;6.10;99.90
16732;DHT22;8484;50.904;9.192;2023-01-04T08:13:39;6.10;99.90
16732;DHT22;8484;50.904;9.192;2023-01-04T08:16:06;6.20;99.90
16732;DHT22;8484;50.904;9.192;2023-01-04T08:18:34;6.10;99.90
16732;DHT22;8484;50.904;9.192;2023-01-04T08:21:01;6.20;99.90
16732;DHT22;8484;50.904;9.192;2023-01-04T08:23:30;6.20;99.90
16732;DHT22;8484;50.904;9.192;2023-01-04T08:26:01;6.20;99.90
16732;DHT22;8484;50.904;9.192;2023-01-04T08:28:29;6.20;99.90
16732;DHT22;8484;50.904;9.192;2023-01-04T08:30:56;6.20;99.90
16732;DHT22;8484;50.904;9.192;2023-01-04T08:33:23;6.30;99.90
16732;DHT22;8484;50.904;9.192;2023-01-04T08:35:50;6.20;99.90
16732;DHT22;8484;50.904;9.192;2023-01-04T08:38:17;6.30;99.90
16732;DHT22;8484;50.904;9.192;2023-01-04T08:40:45;6.30;99.90
16732;DHT22;8484;50.904;9.192;2023-01-04T08:43:12;6.30;99.90
16732;DHT22;8484;50.904;9.192;2023-01-04T08:45:39;6.30;99.90
16732;DHT22;8484;50.904;9.192;2023-01-04T08:48:06;6.30;99.90
16732;DHT22;8484;50.904;9.192;2023-01-04T08:50:33;6.30;99.90
16732;DHT22;8484;50.904;9.192;2023-01-04T08:53:00;6.40;99.90
16732;DHT22;8484;50.904;9.192;2023-01-04T08:55:27;6.30;99.90
16732;DHT22;8484;50.904;9.192;2023-01-04T08:57:55;6.40;99.90
16732;DHT22;8484;50.904;9.192;2023-01-04T09:00:22;6.40;99.90
16732;DHT22;8484;50.904;9.192;2023-01-04T09:02:49;6.30;99.90
16732;DHT22;8484;50.904;9.192;2023-01-04T09:05:17;6.30;99.90
16732;DHT22;8484;50.904;9.192;2023-01-04T09:07:43;6.20;99.90
16732;DHT22;8484;50.904;9.192;2023-01-04T09:10:10;6.20;99.90
16732;DHT22;8484;50.904;9.192;2023-01-04T09:12:37;6.20;99.90
16732;DHT22;8484;50.904;9.192;2023-01-04T09:15:07;6.20;99.90
16732;DHT22;8484;50.904;9.192;2023-01-04T09:17:33;6.20;99.90
16732;DHT22;8484;50.904;9.192;2023-01-04T09:20:00;6.20;99.90
16732;DHT22;8484;50.904;9.192;2023-01-04T09:22:29;6.30;99.90
16732;DHT22;8484;50.904;9.192;2023-01-04T09:24:56;6.40;99.90
16732;DHT22;8484;50.904;9.192;2023-01-04T09:27:23;6.40;99.90
16732;DHT22;8484;50.904;9.192;2023-01-04T09:29:50;6.30;99.90
16732;DHT22;8484;50.904;9.192;2023-01-04T09:32:18;6.30;99.90
16732;DHT22;8484;50.904;9.192;2023-01-04T09:34:45;6.30;99.90
16732;DHT22;8484;50.904;9.192;2023-01-04T09:37:12;6.30;99.90
16732;DHT22;8484;50.904;9.192;2023-01-04T09:39:39;6.30;99.90
16732;DHT22;8484;50.904;9.192;2023-01-04T09:42:15;6.40;99.90
16732;DHT22;8484;50.904;9.192;2023-01-04T09:44:46;6.50;99.90
16732;DHT22;8484;50.904;9.192;2023-01-04T09:47:19;6.50;99.90
16732;DHT22;8484;50.904;9.192;2023-01-04T09:49:50;6.60;99.90
16732;DHT22;8484;50.904;9.192;2023-01-04T09:52:20;6.60;99.90
16732;DHT22;8484;50.904;9.192;2023-01-04T09:54:52;6.70;99.90
16732;DHT22;8484;50.904;9.192;2023-01-04T09:57:23;6.60;99.90
16732;DHT22;8484;50.904;9.192;2023-01-04T09:59:54;6.60;99.90
16732;DHT22;8484;50.904;9.192;2023-01-04T10:02:28;6.70;99.90
16732;DHT22;8484;50.904;9.192;2023-01-04T10:05:01;6.70;99.90
16732;DHT22;8484;50.904;9.192;2023-01-04T10:07:31;6.80;99.90
16732;DHT22;8484;50.904;9.192;2023-01-04T10:09:59;6.70;99.90
16732;DHT22;8484;50.904;9.192;2023-01-04T10:12:37;6.80;99.90
16732;DHT22;8484;50.904;9.192;2023-01-04T10:15:25;6.80;99.90
16732;DHT22;8484;50.904;9.192;2023-01-04T10:18:13;6.90;99.90
16732;DHT22;8484;50.904;9.192;2023-01-04T10:20:55;6.80;99.90
16732;DHT22;8484;50.904;9.192;2023-01-04T10:23:34;6.80;99.90
16732;DHT22;8484;50.904;9.192;2023-01-04T10:26:10;6.70;99.90
16732;DHT22;8484;50.904;9.192;2023-01-04T10:28:53;6.80;99.90
16732;DHT22;8484;50.904;9.192;2023-01-04T10:31:28;6.80;99.90
16732;DHT22;8484;50.904;9.192;2023-01-04T10:34:02;6.80;99.90
16732;DHT22;8484;50.904;9.192;2023-01-04T10:36:31;6.80;99.90
16732;DHT22;8484;50.904;9.192;2023-01-04T10:39:00;6.90;99.90
16732;DHT22;8484;50.904;9.192;2023-01-04T10:41:32;6.80;99.90
16732;DHT22;8484;50.904;9.192;2023-01-04T10:44:11;6.80;99.90
16732;DHT22;8484;50.904;9.192;2023-01-04T10:46:44;6.80;99.90
16732;DHT22;8484;50.904;9.192;2023-01-04T10:49:17;6.80;99.90
16732;DHT22;8484;50.904;9.192;2023-01-04T10:51:48;6.80;99.90
16732;DHT22;8484;50.904;9.192;2023-01-04T10:54:25;6.90;99.90
16732;DHT22;8484;50.904;9.192;2023-01-04T10:56:58;6.90;99.90
16732;DHT22;8484;50.904;9.192;2023-01-04T10:59:30;6.90;99.90
16732;DHT22;8484;50.904;9.192;2023-01-04T11:02:05;6.90;99.90
16732;DHT22;8484;50.904;9.192;2023-01-04T11:04:41;6.90;99.90
16732;DHT22;8484;50.904;9.192;2023-01-04T11:07:14;6.90;99.90
16732;DHT22;8484;50.904;9.192;2023-01-04T11:09:45;7.00;99.90
16732;DHT22;8484;50.904;9.192;2023-01-04T11:12:16;7.00;99.90
16732;DHT22;8484;50.904;9.192;2023-01-04T11:14:44;7.10;99.90
16732;DHT22;8484;50.904;9.192;2023-01-04T11:17:12;7.10;99.90
16732;DHT22;8484;50.904;9.192;2023-01-04T11:19:40;7.20;99.90
16732;DHT22;8484;50.904;9.192;2023-01-04T11:22:13;7.20;99.90
16732;DHT22;8484;50.904;9.192;2023-01-04T11:24:41;7.20;99.90
16732;DHT22;8484;50.904;9.192;2023-01-04T11:27:13;7.20;99.90
16732;DHT22;8484;50.904;9.192;2023-01-04T11:29:48;7.30;99.90
16732;DHT22;8484;50.904;9.192;2023-01-04T11:32:20;7.40;99.90
16732;DHT22;8484;50.904;9.192;2023-01-04T11:34:55;7.30;99.90
16732;DHT22;8484;50.904;9.192;2023-01-04T11:37:28;7.40;99.90
16732;DHT22;8484;50.904;9.192;2023-01-04T11:40:21;7.40;99.90
16732;DHT22;8484;50.904;9.192;2023-01-04T11:42:50;7.40;99.90
16732;DHT22;8484;50.904;9.192;2023-01-04T11:45:20;7.40;99.90
16732;DHT22;8484;50.904;9.192;2023-01-04T11:47:49;7.40;99.90
16732;DHT22;8484;50.904;9.192;2023-01-04T11:50:37;7.40;99.90
16732;DHT22;8484;50.904;9.192;2023-01-04T11:56:19;7.30;99.90
16732;DHT22;8484;50.904;9.192;2023-01-04T11:59:19;7.30;99.90
16732;DHT22;8484;50.904;9.192;2023-01-04T12:01:48;7.30;99.90
16732;DHT22;8484;50.904;9.192;2023-01-04T12:04:19;7.30;99.90
16732;DHT22;8484;50.904;9.192;2023-01-04T12:06:50;7.30;99.90
16732;DHT22;8484;50.904;9.192;2023-01-04T12:09:19;7.40;99.90
16732;DHT22;8484;50.904;9.192;2023-01-04T12:11:47;7.50;99.90
16732;DHT22;8484;50.904;9.192;2023-01-04T12:14:21;7.40;99.90
16732;DHT22;8484;50.904;9.192;2023-01-04T12:16:55;7.50;99.90
16732;DHT22;8484;50.904;9.192;2023-01-04T12:19:23;7.50;99.90
16732;DHT22;8484;50.904;9.192;2023-01-04T12:21:54;7.70;99.90
16732;DHT22;8484;50.904;9.192;2023-01-04T12:24:23;7.70;99.90
16732;DHT22;8484;50.904;9.192;2023-01-04T12:26:52;7.70;99.90
16732;DHT22;8484;50.904;9.192;2023-01-04T12:29:39;7.70;99.90
16732;DHT22;8484;50.904;9.192;2023-01-04T12:32:38;7.70;99.90
16732;DHT22;8484;50.904;9.192;2023-01-04T12:38:09;7.80;99.90
16732;DHT22;8484;50.904;9.192;2023-01-04T12:40:52;7.80;99.90
16732;DHT22;8484;50.904;9.192;2023-01-04T12:43:25;7.80;99.90
16732;DHT22;8484;50.904;9.192;2023-01-04T12:49:44;7.80;99.90
16732;DHT22;8484;50.904;9.192;2023-01-04T12:52:34;7.70;99.90
16732;DHT22;8484;50.904;9.192;2023-01-04T12:58:42;7.70;99.90
16732;DHT22;8484;50.904;9.192;2023-01-04T13:01:29;7.70;99.90
16732;DHT22;8484;50.904;9.192;2023-01-04T13:03:58;7.70;99.90
16732;DHT22;8484;50.904;9.192;2023-01-04T13:06:28;7.70;99.90
16732;DHT22;8484;50.904;9.192;2023-01-04T13:08:55;7.80;99.90
16732;DHT22;8484;50.904;9.192;2023-01-04T13:11:42;7.80;99.90
16732;DHT22;8484;50.904;9.192;2023-01-04T13:14:19;7.80;99.90
16732;DHT22;8484;50.904;9.192;2023-01-04T13:17:02;7.90;99.90
16732;DHT22;8484;50.904;9.192;2023-01-04T13:19:37;7.90;99.90
16732;DHT22;8484;50.904;9.192;2023-01-04T13:22:11;7.90;99.90
16732;DHT22;8484;50.904;9.192;2023-01-04T13:24:43;7.90;99.90
16732;DHT22;8484;50.904;9.192;2023-01-04T13:27:15;7.90;99.90
16732;DHT22;8484;50.904;9.192;2023-01-04T13:29:42;7.90;99.90
16732;DHT22;8484;50.904;9.192;2023-01-04T13:32:13;7.90;99.90
16732;DHT22;8484;50.904;9.192;2023-01-04T13:34:48;7.90;99.90
16732;DHT22;8484;50.904;9.192;2023-01-04T13:37:26;7.90;99.90
16732;DHT22;8484;50.904;9.192;2023-01-04T13:40:13;7.90;99.90
16732;DHT22;8484;50.904;9.192;2023-01-04T13:42:42;7.90;99.90
16732;DHT22;8484;50.904;9.192;2023-01-04T13:48:12;7.90;99.90
16732;DHT22;8484;50.904;9.192;2023-01-04T13:50:41;7.90;99.90
16732;DHT22;8484;50.904;9.192;2023-01-04T13:53:18;7.90;99.90
16732;DHT22;8484;50.904;9.192;2023-01-04T13:55:49;7.90;99.90
16732;DHT22;8484;50.904;9.192;2023-01-04T13:58:18;7.90;99.90
16732;DHT22;8484;50.904;9.192;2023-01-04T14:00:49;7.90;99.90
16732;DHT22;8484;50.904;9.192;2023-01-04T14:03:29;7.90;99.90
16732;DHT22;8484;50.904;9.192;2023-01-04T14:06:11;7.90;99.90
16732;DHT22;8484;50.904;9.192;2023-01-04T14:08:41;7.90;99.90
16732;DHT22;8484;50.904;9.192;2023-01-04T14:11:15;7.90;99.90
16732;DHT22;8484;50.904;9.192;2023-01-04T14:14:28;8.00;99.90
16732;DHT22;8484;50.904;9.192;2023-01-04T14:17:16;8.00;99.90
16732;DHT22;8484;50.904;9.192;2023-01-04T14:19:47;8.00;99.90
16732;DHT22;8484;50.904;9.192;2023-01-04T14:22:38;8.00;99.90
16732;DHT22;8484;50.904;9.192;2023-01-04T14:28:32;8.10;99.90
16732;DHT22;8484;50.904;9.192;2023-01-04T14:31:18;8.10;99.90
16732;DHT22;8484;50.904;9.192;2023-01-04T14:33:48;8.20;99.90
16732;DHT22;8484;50.904;9.192;2023-01-04T14:36:20;8.20;99.90
16732;DHT22;8484;50.904;9.192;2023-01-04T14:39:07;8.20;99.90
16732;DHT22;8484;50.904;9.192;2023-01-04T14:41:37;8.20;99.90
16732;DHT22;8484;50.904;9.192;2023-01-04T14:44:12;8.30;99.90
16732;DHT22;8484;50.904;9.192;2023-01-04T14:46:40;8.30;99.90
16732;DHT22;8484;50.904;9.192;2023-01-04T14:49:08;8.40;99.90
16732;DHT22;8484;50.904;9.192;2023-01-04T14:51:40;8.30;99.90
16732;DHT22;8484;50.904;9.192;2023-01-04T14:54:10;8.30;99.90
16732;DHT22;8484;50.904;9.192;2023-01-04T14:56:37;8.40;99.90
16732;DHT22;8484;50.904;9.192;2023-01-04T14:59:05;8.40;99.90
16732;DHT22;8484;50.904;9.192;2023-01-04T15:01:31;8.40;99.90
16732;DHT22;8484;50.904;9.192;2023-01-04T15:03:59;8.40;99.90
16732;DHT22;8484;50.904;9.192;2023-01-04T15:06:25;8.40;99.90
16732;DHT22;8484;50.904;9.192;2023-01-04T15:08:54;8.50;99.90
16732;DHT22;8484;50.904;9.192;2023-01-04T15:11:21;8.50;99.90
16732;DHT22;8484;50.904;9.192;2023-01-04T15:13:47;8.50;99.90
16732;DHT22;8484;50.904;9.192;2023-01-04T15:16:15;8.50;99.90
16732;DHT22;8484;50.904;9.192;2023-01-04T15:18:43;8.60;99.90
16732;DHT22;8484;50.904;9.192;2023-01-04T15:21:10;8.60;99.90
16732;DHT22;8484;50.904;9.192;2023-01-04T15:23:38;8.60;99.90
16732;DHT22;8484;50.904;9.192;2023-01-04T15:26:08;8.60;99.90
16732;DHT22;8484;50.904;9.192;2023-01-04T15:28:35;8.70;99.90
16732;DHT22;8484;50.904;9.192;2023-01-04T15:31:05;8.70;99.90
16732;DHT22;8484;50.904;9.192;2023-01-04T15:33:32;8.70;99.90
16732;DHT22;8484;50.904;9.192;2023-01-04T15:36:00;8.80;99.90
16732;DHT22;8484;50.904;9.192;2023-01-04T15:38:28;8.80;99.90
16732;DHT22;8484;50.904;9.192;2023-01-04T15:41:07;8.80;99.90
16732;DHT22;8484;50.904;9.192;2023-01-04T15:43:35;8.80;99.90
16732;DHT22;8484;50.904;9.192;2023-01-04T15:46:03;8.90;99.90
16732;DHT22;8484;50.904;9.192;2023-01-04T15:48:32;8.90;99.90
16732;DHT22;8484;50.904;9.192;2023-01-04T15:51:01;8.90;99.90
16732;DHT22;8484;50.904;9.192;2023-01-04T15:53:29;8.90;99.90
16732;DHT22;8484;50.904;9.192;2023-01-04T15:56:03;9.00;99.90
16732;DHT22;8484;50.904;9.192;2023-01-04T15:58:32;9.00;99.90
16732;DHT22;8484;50.904;9.192;2023-01-04T16:00:59;9.10;99.90
16732;DHT22;8484;50.904;9.192;2023-01-04T16:03:25;9.10;99.90
16732;DHT22;8484;50.904;9.192;2023-01-04T16:05:52;9.10;99.90
16732;DHT22;8484;50.904;9.192;2023-01-04T16:08:19;9.20;99.90
16732;DHT22;8484;50.904;9.192;2023-01-04T16:10:50;9.20;99.90
16732;DHT22;8484;50.904;9.192;2023-01-04T16:13:17;9.20;99.90
16732;DHT22;8484;50.904;9.192;2023-01-04T16:15:45;9.30;99.90
16732;DHT22;8484;50.904;9.192;2023-01-04T16:18:11;9.40;99.90
16732;DHT22;8484;50.904;9.192;2023-01-04T16:20:40;9.40;99.90
16732;DHT22;8484;50.904;9.192;2023-01-04T16:23:06;9.30;99.90
16732;DHT22;8484;50.904;9.192;2023-01-04T16:25:33;9.40;99.90
16732;DHT22;8484;50.904;9.192;2023-01-04T16:28:00;9.40;99.90
16732;DHT22;8484;50.904;9.192;2023-01-04T16:30:31;9.50;99.90
16732;DHT22;8484;50.904;9.192;2023-01-04T16:33:00;9.40;99.90
16732;DHT22;8484;50.904;9.192;2023-01-04T16:35:27;9.40;99.90
16732;DHT22;8484;50.904;9.192;2023-01-04T16:37:54;9.50;99.90
16732;DHT22;8484;50.904;9.192;2023-01-04T16:40:21;9.50;99.90
16732;DHT22;8484;50.904;9.192;2023-01-04T16:42:49;9.50;99.90
16732;DHT22;8484;50.904;9.192;2023-01-04T16:45:16;9.50;99.90
16732;DHT22;8484;50.904;9.192;2023-01-04T16:47:43;9.50;99.90
16732;DHT22;8484;50.904;9.192;2023-01-04T16:50:12;9.50;99.90
16732;DHT22;8484;50.904;9.192;2023-01-04T16:52:39;9.50;99.90